Cuba, Illinois
Current Conditions -  °F | °C
As of 7:35 AM on Sunday 23 Nov 2014 (Local Time) from KMQB Reporting Station
Light Rain Light Rain  
Wind Chill: 45°   Ceiling: 7500
Heat Index: 49°   Visibility: 5mi
Dew Point: 48°   Wind: 10mph
Humidity: 95%   Direction: 160°SSE
Pressure: 29.68"   Gusts: NA
Location:  40.49°N, 90.19°W
Report Text: KMQB 231335Z AUTO 16009KT 5SM -RA SCT070 BKN075 OVC085 09/09 A2968 RMK AO2 P0009 T00940087
Loading
Personal Weather Stations






























Interactive Weather Map New forecast layout! Learn more

10-Day Weather Forecast

Advertisements
Track Severe Weather on mobile